Latest Weather Observations for Norfolk Island

IDN60801

Issued at 12:32 am EST Sunday 30 August 2015 (issued every 30 minutes, with the page automatically refreshed every 10 minutes)

About weather observations | Map of weather stations | Latest weather observations for NSW | Other Formats
Station Details ID: 200288 Name: NORFOLK ISLAND AERO Lat: -29.04 Lon: 167.94 Height: 111.73 m
Data from the previous 72 hours. | See also: Recent months at Norfolk Island
Date/Time
EST
Temp
°C
App
Temp
°C
Dew
Point
Rel
Hum
%
Delta-T
°C
Wind Press
QNH
hPa
Press
MSL
hPa
Rain
since 9 am
mm
Dir
 
Spd
km/h
Gust
km/h
Spd
kts
Gust
kts
30/12:30am 17.6 16.1 14.3 81 1.9 N 15 26 8 14 1022.2 - 0.0
30/12:00am 17.6 15.9 14.7 83 1.7 NNE 17 26 9 14 1022.3 - 0.0
 
Date/Time
EST
Temp
°C
App
Temp
°C
Dew
Point
Rel
Hum
%
Delta-T
°C
Wind Press
QNH
hPa
Press
MSL
hPa
Rain
since 9 am
mm
Dir
 
Spd
km/h
Gust
km/h
Spd
kts
Gust
kts
29/11:30pm 17.5 16.2 14.7 83 1.6 N 15 22 8 12 1022.8 - 0.0
29/11:00pm 17.6 16.3 14.7 83 1.7 NNE 15 28 8 15 1023.2 - 0.0
29/10:30pm 17.7 16.0 14.6 82 1.8 NNE 17 28 9 15 1023.4 1023.2 0.0
29/10:00pm 17.7 15.6 14.8 83 1.7 NNE 19 30 10 16 1023.5 - 0.0
29/09:30pm 17.6 15.4 14.5 82 1.8 NNE 19 28 10 15 1023.5 - 0.0
29/09:00pm 17.5 15.4 14.7 83 1.6 NNE 19 28 10 15 1023.5 - 0.0
29/08:30pm 17.4 15.9 15.3 87 1.2 NNE 17 26 9 14 1023.7 - 0.0
29/08:00pm 17.6 16.2 15.6 88 1.2 NE 17 24 9 13 1023.7 - 0.0
29/07:30pm 17.5 15.9 13.8 79 2.1 NNE 15 22 8 12 1023.9 1023.7 0.0
29/07:00pm 17.7 16.0 13.6 77 2.3 NNE 15 26 8 14 1023.9 - 0.0
29/06:30pm 17.3 16.0 13.6 79 2.1 NNE 13 17 7 9 1024.0 - 0.0
29/06:00pm 17.5 16.2 13.8 79 2.1 NNE 13 19 7 10 1023.9 - 0.0
29/05:30pm 17.5 16.9 13.6 78 2.2 N 9 15 5 8 1023.8 - 0.0
29/05:00pm 17.4 16.0 13.5 78 2.2 NNE 13 17 7 9 1023.7 - 0.0
29/04:30pm 17.6 16.6 13.3 76 2.4 N 11 17 6 9 1023.7 1023.5 0.0
29/04:00pm 18.3 17.3 13.5 73 2.7 N 11 20 6 11 1023.4 - 0.0
29/03:30pm 18.8 17.5 13.7 72 2.9 N 13 22 7 12 1023.1 - 0.0
29/03:00pm 19.2 16.9 14.2 73 2.9 NNE 19 26 10 14 1023.1 - 0.0
29/02:30pm 19.2 16.9 14.0 72 3.0 N 19 28 10 15 1023.1 - 0.0
29/02:00pm 19.1 16.8 14.1 73 2.9 NNE 19 33 10 18 1023.3 - 0.0
29/01:30pm 18.9 16.4 14.2 74 2.7 NNE 20 30 11 16 1023.2 1023.0 0.0
29/01:00pm 18.8 16.1 14.7 77 2.4 NE 22 32 12 17 1023.2 - 0.0
29/12:30pm 19.1 15.9 14.3 73 2.8 NNE 24 35 13 19 1023.7 - 0.0
29/12:00pm 19.3 16.4 14.1 72 3.0 NE 22 33 12 18 1024.0 - 0.0
29/11:30am 19.7 17.2 14.2 70 3.2 NNE 20 28 11 15 1024.3 - 0.0
29/11:00am 19.4 15.9 14.4 73 2.9 NE 26 35 14 19 1024.8 - 0.0
29/10:30am 19.4 16.4 12.6 64 3.8 NNE 20 32 11 17 1025.1 1025.0 0.0
29/10:00am 19.5 16.2 13.9 70 3.2 NNE 24 33 13 18 1025.7 - 0.0
29/09:30am 19.1 15.9 14.2 73 2.8 NNE 24 35 13 19 1026.1 - 0.0
29/09:00am 19.8 16.9 13.9 69 3.4 NNE 22 33 12 18 1026.5 - 0.0
29/08:30am 18.5 16.6 14.1 75 2.5 NNE 17 26 9 14 1026.2 - 0.0
29/08:00am 19.2 17.9 13.6 70 3.2 N 13 26 7 14 1026.6 - 0.0
29/07:30am 17.2 16.6 14.6 85 1.5 ENE 11 13 6 7 1026.2 1026.1 0.2
29/07:00am 16.9 16.1 15.0 88 1.1 ENE 13 19 7 10 1025.9 - 0.2
29/06:30am 16.2 14.5 14.6 90 0.9 ENE 17 22 9 12 1025.8 - 0.2
29/06:00am 16.1 14.2 14.3 89 1.0 ENE 17 20 9 11 1025.7 - 0.2
29/05:30am 15.8 13.8 14.0 89 1.0 NE 17 22 9 12 1025.5 - 0.2
29/05:00am 16.3 13.4 14.0 86 1.3 NE 22 30 12 16 1025.2 - 0.2
29/04:30am 16.6 14.7 13.0 79 2.0 NE 15 20 8 11 1025.0 1024.9 0.2
29/04:00am 16.8 15.0 13.2 79 2.0 NNE 15 20 8 11 1024.8 - 0.2
29/03:30am 17.1 15.6 13.0 77 2.3 NNE 13 20 7 11 1024.6 - 0.2
29/03:00am 16.8 15.2 12.8 77 2.2 NNE 13 20 7 11 1024.5 - 0.2
29/02:30am 16.3 15.7 13.6 84 1.5 NE 9 15 5 8 1024.6 - 0.2
29/02:00am 16.9 15.5 13.3 79 2.0 NE 13 17 7 9 1024.8 - 0.0
29/01:30am 17.3 14.9 12.6 74 2.6 NNE 17 26 9 14 1024.8 1024.6 0.0
29/01:00am 17.2 14.8 12.7 75 2.5 NNE 17 26 9 14 1025.2 - 0.0
29/12:30am 16.9 15.5 13.3 79 2.0 NNE 13 24 7 13 1025.5 - 0.0
29/12:00am 16.9 15.6 12.4 75 2.5 NNE 11 17 6 9 1025.8 - 0.0
 
Date/Time
EST
Temp
°C
App
Temp
°C
Dew
Point
Rel
Hum
%
Delta-T
°C
Wind Press
QNH
hPa
Press
MSL
hPa
Rain
since 9 am
mm
Dir
 
Spd
km/h
Gust
km/h
Spd
kts
Gust
kts
28/11:30pm 17.2 14.9 11.9 71 2.9 NNE 15 24 8 13 1025.9 - 0.0
28/11:00pm 17.2 14.6 11.9 71 2.9 NNE 17 30 9 16 1025.8 - 0.0
28/10:30pm 17.5 14.9 12.0 70 3.0 NNE 17 30 9 16 1025.7 1025.6 0.0
28/10:00pm 17.2 15.3 11.9 71 2.9 NE 13 26 7 14 1026.1 - 0.0
28/09:30pm 16.9 14.7 12.0 73 2.7 NE 15 22 8 12 1026.2 - 0.0
28/09:00pm 17.3 14.9 11.4 68 3.2 NE 15 26 8 14 1026.2 - 0.0
28/08:30pm 17.1 14.1 12.0 72 2.8 NE 19 28 10 15 1026.2 - 0.0
28/08:00pm 17.2 15.0 12.1 72 2.8 NE 15 24 8 13 1026.3 - 0.0
28/07:30pm 17.4 15.0 12.5 73 2.7 NE 17 26 9 14 1026.2 1026.1 0.0
28/07:00pm 17.5 14.6 12.4 72 2.8 NE 19 30 10 16 1026.0 - 0.0
28/06:30pm 16.9 14.5 12.6 76 2.4 ENE 17 26 9 14 1025.6 - 0.0
28/06:00pm 17.1 14.6 12.4 74 2.6 NE 17 32 9 17 1025.4 - 0.0
28/05:30pm 17.2 14.2 12.1 72 2.8 NE 19 28 10 15 1025.2 - 0.0
28/05:00pm 17.2 14.6 11.9 71 2.9 ENE 17 26 9 14 1025.2 - 0.0
28/04:30pm 17.3 14.3 11.8 70 3.0 NE 19 30 10 16 1024.9 1024.7 0.0
28/04:00pm 17.8 14.1 11.4 66 3.5 NE 22 33 12 18 1024.4 - 0.0
28/03:30pm 18.3 14.8 12.2 67 3.4 NE 22 33 12 18 1024.3 - 0.0
28/03:00pm 18.2 14.6 11.8 66 3.5 NE 22 32 12 17 1024.2 - 0.0
28/02:30pm 19.0 15.5 12.2 64 3.8 NE 22 33 12 18 1024.2 - 0.0
28/02:00pm 19.2 14.9 12.2 64 3.9 ENE 26 37 14 20 1024.1 - 0.0
28/01:30pm 19.1 14.7 11.7 62 4.1 NE 26 35 14 19 1024.5 1024.3 0.0
28/01:00pm 19.2 14.9 12.2 64 3.9 NE 26 37 14 20 1024.7 - 0.0
28/12:30pm 19.2 14.9 12.2 64 3.9 NE 26 39 14 21 1025.1 - 0.0
28/12:00pm 19.2 15.0 12.4 64 3.8 NE 26 33 14 18 1025.4 - 0.0
28/11:30am 19.0 14.0 12.2 64 3.8 NE 30 39 16 21 1025.7 - 0.0
28/11:00am 19.3 14.8 12.5 64 3.8 NE 28 33 15 18 1026.3 - 0.0
28/10:30am 19.4 15.1 12.2 63 4.0 NE 26 35 14 19 1026.6 1026.5 0.0
28/10:00am 19.4 14.5 12.6 64 3.8 NE 30 35 16 19 1026.9 - 0.0
28/09:30am 18.8 14.1 12.1 65 3.7 NE 28 37 15 20 1027.3 - 0.0
28/09:00am 18.9 14.6 12.0 64 3.8 NE 26 35 14 19 1027.4 - 0.0
28/08:30am 18.1 14.3 12.3 69 3.2 NE 24 32 13 17 1027.4 - 0.0
28/08:00am 18.3 14.8 13.3 72 2.8 ENE 24 33 13 18 1027.2 - 0.0
28/07:30am 17.4 14.8 13.3 77 2.3 ENE 19 26 10 14 1027.5 1027.4 5.6
28/07:07am 16.8 15.8 13.4 80 1.9 NE 11 20 6 11 1027.7 - 5.6
28/07:00am 16.3 15.4 13.6 84 1.5 NE 11 17 6 9 1027.6 - 5.6
28/06:30am 16.3 15.6 14.4 88 1.1 NE 11 15 6 8 1027.3 - 5.6
28/06:00am 15.7 14.7 14.7 94 0.6 ENE 13 20 7 11 1026.9 - 5.6
28/05:58am 15.6 14.3 14.7 94 0.5 E 15 20 8 11 1026.8 - 5.6
28/05:47am 15.4 13.2 14.5 94 0.5 E 19 28 10 15 1026.7 - 5.6
28/05:30am 15.5 13.8 14.6 94 0.5 E 17 26 9 14 1026.5 - 5.4
28/05:26am 15.5 13.4 14.6 94 0.5 ENE 19 28 10 15 1026.5 - 5.4
28/05:20am 15.5 13.4 14.6 94 0.5 ENE 19 28 10 15 1026.4 - 5.4
28/05:18am 15.5 13.8 14.6 94 0.5 ENE 17 26 9 14 1026.3 - 5.4
28/05:05am 15.5 13.2 14.6 94 0.5 ENE 20 30 11 16 1026.2 - 5.2
28/05:02am 15.5 12.7 14.4 93 0.6 ENE 22 32 12 17 1026.1 - 5.0
28/05:01am 15.5 12.7 14.4 93 0.6 ENE 22 32 12 17 1026.1 - 4.8
28/05:00am 15.5 12.4 14.4 93 0.6 ENE 24 32 13 17 1026.0 - 4.6
28/04:45am 15.4 12.7 14.5 94 0.5 ENE 22 30 12 16 1025.7 - 4.6
28/04:30am 15.7 13.6 14.8 94 0.5 ENE 19 32 10 17 1025.6 1025.5 4.6
28/04:00am 15.4 14.0 14.5 94 0.5 ENE 15 22 8 12 1025.5 - 3.2
28/03:52am 15.5 14.8 14.4 93 0.6 ENE 11 20 6 11 1025.6 - 2.6
28/03:51am 15.5 14.8 14.4 93 0.6 ENE 11 15 6 8 1025.6 - 2.6
28/03:47am 15.4 14.7 14.3 93 0.6 NE 11 17 6 9 1025.5 - 2.6
28/03:30am 15.3 13.6 13.7 90 0.9 NE 15 28 8 15 1025.4 - 2.4
28/03:17am 15.4 12.2 14.2 92 0.7 NE 24 35 13 19 1025.5 - 2.4
28/03:00am 16.0 14.1 14.1 88 1.1 NE 17 28 9 15 1025.2 - 2.2
28/02:30am 16.3 13.9 13.8 85 1.4 NE 19 28 10 15 1025.4 - 2.2
28/02:03am 16.0 14.6 14.6 91 0.8 NE 15 26 8 14 1025.4 - 2.2
28/02:00am 16.0 14.7 14.8 93 0.7 NE 15 26 8 14 1025.3 - 2.2
28/01:46am 15.7 13.9 14.5 93 0.7 ENE 17 22 9 12 1025.3 - 2.2
28/01:30am 15.5 14.3 14.1 91 0.8 ENE 13 17 7 9 1025.4 1025.3 2.0
28/01:00am 15.6 15.7 14.5 93 0.6 NE 7 11 4 6 1025.9 - 1.8
28/12:50am 15.6 15.3 14.4 93 0.7 ENE 9 11 5 6 1026.0 - 1.2
28/12:43am 15.7 15.7 14.3 91 0.8 NE 7 11 4 6 1026.1 - 0.8
28/12:30am 15.9 13.7 14.5 91 0.8 NE 19 32 10 17 1026.1 - 0.8
28/12:24am 16.0 14.2 14.4 90 0.9 ENE 17 32 9 17 1026.2 - 0.6
28/12:00am 15.8 14.7 13.1 84 1.5 ENE 11 17 6 9 1026.4 - 0.2
 
Date/Time
EST
Temp
°C
App
Temp
°C
Dew
Point
Rel
Hum
%
Delta-T
°C
Wind Press
QNH
hPa
Press
MSL
hPa
Rain
since 9 am
mm
Dir
 
Spd
km/h
Gust
km/h
Spd
kts
Gust
kts
27/11:30pm 15.7 14.7 13.4 86 1.3 ENE 11 15 6 8 1026.6 - 0.2
27/11:00pm 15.7 14.5 13.9 89 1.0 ENE 13 17 7 9 1027.0 - 0.2
27/10:32pm 15.6 14.7 13.8 89 1.0 ENE 11 15 6 8 1026.9 - 0.0
27/10:30pm 15.6 14.3 13.8 89 1.0 ENE 13 17 7 9 1026.9 1026.8 0.0
27/10:15pm 16.2 14.2 13.9 86 1.3 ENE 17 28 9 15 1027.2 - 0.0
27/10:00pm 16.4 14.7 13.6 83 1.6 ENE 15 19 8 10 1027.2 - 0.0
27/09:30pm 16.2 14.7 13.1 82 1.7 ENE 13 19 7 10 1027.3 - 0.0
27/09:00pm 16.3 13.6 12.9 80 1.9 ENE 19 26 10 14 1027.2 - 0.0
27/08:30pm 16.7 13.2 13.3 80 1.9 ENE 24 30 13 16 1026.8 - 0.0
27/08:00pm 16.1 13.4 12.9 81 1.8 E 19 26 10 14 1026.8 - 0.0
27/07:30pm 16.4 13.1 12.8 79 2.0 E 22 33 12 18 1026.4 1026.3 0.0
27/07:00pm 16.4 12.8 13.2 81 1.8 E 24 33 13 18 1026.2 - 0.0
27/06:30pm 16.1 13.6 12.3 78 2.1 E 17 22 9 12 1025.9 - 0.0
27/06:00pm 16.1 13.7 12.5 79 2.0 E 17 24 9 13 1025.7 - 0.0
27/05:30pm 16.1 13.7 12.7 80 1.9 E 17 19 9 10 1025.7 - 0.0
27/05:00pm 16.6 14.2 12.8 78 2.1 ENE 17 22 9 12 1025.8 - 0.0
27/04:30pm 16.9 14.4 12.4 75 2.5 E 17 24 9 13 1025.7 1025.6 0.0
27/04:00pm 17.4 14.3 11.7 69 3.1 E 19 28 10 15 1025.5 - 0.0
27/03:30pm 18.2 15.6 12.0 67 3.4 E 17 24 9 13 1025.6 - 0.0
27/03:00pm 18.8 16.6 12.1 65 3.7 ENE 15 22 8 12 1025.7 - 0.0
27/02:30pm 18.6 15.9 11.7 64 3.8 NE 17 24 9 13 1025.8 - 0.0
27/02:00pm 19.2 16.0 11.4 60 4.3 E 19 28 10 15 1025.7 - 0.0
27/01:30pm 19.1 16.2 12.3 64 3.8 NE 19 26 10 14 1025.9 1025.8 0.0
27/01:00pm 19.4 16.3 11.6 60 4.3 NE 19 26 10 14 1026.1 - 0.0
27/12:30pm 19.2 16.2 12.0 63 4.0 NE 19 26 10 14 1026.0 - 0.0
27/12:00pm 19.5 16.4 12.3 63 4.0 ENE 20 30 11 16 1026.0 - 0.0
27/11:30am 19.7 16.3 12.6 63 4.0 ENE 22 32 12 17 1026.2 - 0.0
27/11:00am 19.8 16.1 12.7 63 4.0 ENE 24 32 13 17 1026.2 - 0.0
27/10:30am 19.3 15.8 12.1 63 4.0 NE 22 32 12 17 1026.6 1026.5 0.0
27/10:00am 19.3 16.2 12.3 64 3.9 NE 20 30 11 16 1027.1 - 0.0
27/09:30am 19.0 15.2 12.4 65 3.7 NE 24 37 13 20 1027.1 - 0.0
27/09:00am 18.7 14.9 12.4 67 3.5 ENE 24 37 13 20 1027.2 - 0.0
27/08:30am 18.2 15.0 12.0 67 3.4 ENE 20 30 11 16 1027.4 - 0.0
27/08:00am 18.2 16.2 12.6 70 3.1 NE 15 24 8 13 1027.6 - 0.0
27/07:30am 17.7 16.2 13.1 74 2.6 ENE 13 19 7 10 1027.8 1027.7 5.0
27/07:00am 16.9 15.4 13.1 78 2.1 ENE 13 17 7 9 1027.7 - 5.0
27/06:30am 16.5 15.8 13.1 80 1.9 NE 9 11 5 6 1027.4 - 5.0
27/06:00am 15.9 14.8 13.2 84 1.5 NE 11 13 6 7 1027.1 - 5.0
27/05:30am 15.2 15.4 14.3 94 0.5 ENE 6 13 3 7 1026.7 - 5.0
27/05:00am 15.2 16.6 14.3 94 0.5 CALM 0 0 0 0 1026.4 - 5.0
27/04:30am 15.3 15.3 14.2 93 0.6 NNE 7 11 4 6 1026.2 1026.1 5.0
27/04:22am 15.2 14.5 14.3 94 0.5 NNE 11 17 6 9 1026.1 - 5.0
27/04:00am 15.2 14.2 14.5 96 0.4 NNE 13 17 7 9 1026.0 - 5.0
27/03:40am 15.2 14.5 14.3 94 0.5 NE 11 17 6 9 1025.9 - 4.4
27/03:30am 15.4 14.8 14.7 96 0.4 NE 11 17 6 9 1025.9 - 3.8
27/03:07am 15.3 14.6 14.2 93 0.6 NE 11 20 6 11 1025.8 - 0.8
27/03:00am 14.7 14.4 13.4 92 0.7 NE 7 11 4 6 1025.7 - 0.4
27/02:30am 15.0 16.2 13.8 92 0.7 CALM 0 0 0 0 1025.8 - 0.4
27/02:00am 15.3 15.2 13.9 91 0.8 NNE 7 9 4 5 1025.7 - 0.4
27/01:59am 15.3 15.3 14.1 92 0.7 NNE 7 9 4 5 1025.7 - 0.4
27/01:30am 15.7 14.3 13.4 86 1.3 NNE 13 17 7 9 1025.5 1025.4 0.2
27/01:26am 15.6 14.3 13.6 88 1.1 NNE 13 17 7 9 1025.5 - 0.2
27/01:08am 15.8 15.0 14.0 89 1.0 NNE 11 17 6 9 1025.5 - 0.2
27/01:00am 15.8 14.5 13.8 88 1.1 ENE 13 19 7 10 1025.4 - 0.2
27/12:30am 15.8 14.9 13.7 87 1.2 NE 11 15 6 8 1025.9 - 0.0
27/12:00am 16.1 14.6 14.2 88 1.1 NE 15 24 8 13 1026.1 - 0.0
 
Date/Time
EST
Temp
°C
App
Temp
°C
Dew
Point
Rel
Hum
%
Delta-T
°C
Wind Press
QNH
hPa
Press
MSL
hPa
Rain
since 9 am
mm
Dir
 
Spd
km/h
Gust
km/h
Spd
kts
Gust
kts
26/11:59pm 16.1 14.6 14.2 88 1.1 NE 15 24 8 13 1026.1 - 0.0
26/11:45pm 16.0 14.5 14.1 88 1.1 NE 15 19 8 10 1026.3 - 0.0
26/11:30pm 15.8 14.7 14.4 91 0.8 NE 13 17 7 9 1026.6 - 0.0
26/11:21pm 15.8 14.7 14.4 91 0.8 NE 13 19 7 10 1026.7 - 0.0

Other Formats:

Comma delimited format used in spreadsheet applications
http://www.bom.gov.au/fwo/IDN60801/IDN60801.94996.axf

JavaScript Object Notation format (JSON) in row-major order
http://www.bom.gov.au/fwo/IDN60801/IDN60801.94996.json